Time;durP1;ratioP1;P1;durP2;ratioP2;P2;SDS_P1;SDS_P2;PMS_P1;PMS_P2;Temp;Humidity;BMP_temperature;BMP_pressure;BME280_temperature;BME280_humidity;BME280_pressure;Samples;Min_cycle;Max_cycle;Signal;HPM_P1;HPM_P2
2022/01/08 00:00:33;;;;;;;;;0.00;0.00;;;;;22.56;37.80;101431.13;5048797;28;45515;-72
2022/01/08 00:02:58;;;;;;;;;1.00;1.00;;;;;22.52;38.03;101418.22;5051375;28;45481;-72
2022/01/08 00:05:24;;;;;;;;;0.00;0.00;;;;;22.55;38.13;101418.84;5052479;28;45429;-72
2022/01/08 00:07:51;;;;;;;;;0.00;0.00;;;;;22.56;37.76;101421.31;5037687;28;45340;-72
2022/01/08 00:10:17;;;;;;;;;0.00;0.00;;;;;22.55;37.87;101421.50;5041318;28;45220;-72
2022/01/08 00:12:43;;;;;;;;;1.67;0.00;;;;;22.51;37.86;101410.41;5051949;28;45441;-72
2022/01/08 00:15:09;;;;;;;;;0.00;0.00;;;;;22.54;38.29;101407.41;5049886;28;45532;-72
2022/01/08 00:17:35;;;;;;;;;0.00;0.00;;;;;22.57;37.83;101422.16;5036291;28;47171;-72
2022/01/08 00:20:00;;;;;;;;;0.00;0.00;;;;;22.58;38.22;101419.34;5040493;28;45512;-72
2022/01/08 00:22:26;;;;;;;;;0.00;0.00;;;;;22.48;37.99;101408.91;5039772;28;45351;-72
2022/01/08 00:24:52;;;;;;;;;0.00;0.00;;;;;22.58;37.79;101422.00;5042052;28;45632;-72
2022/01/08 00:27:22;;;;;;;;;0.00;0.00;;;;;22.59;37.92;101428.94;5051648;28;46480;-72
2022/01/08 00:29:47;;;;;;;;;0.00;0.00;;;;;22.54;37.64;101422.50;5050445;28;45425;-72
2022/01/08 00:32:14;;;;;;;;;0.00;0.00;;;;;22.59;38.23;101434.25;5054130;28;45388;-72
2022/01/08 00:34:40;;;;;;;;;0.00;0.00;;;;;22.59;37.92;101434.25;5037315;28;45595;-72
2022/01/08 00:37:06;;;;;;;;;0.00;0.00;;;;;22.59;38.31;101420.16;5051669;28;46415;-72
2022/01/08 00:39:32;;;;;;;;;0.00;0.00;;;;;22.60;38.11;101430.63;5025347;28;45423;-73
2022/01/08 00:41:57;;;;;;;;;0.00;0.00;;;;;22.48;37.86;101411.56;5044954;28;45469;-72
2022/01/08 00:44:22;;;;;;;;;0.00;0.00;;;;;22.60;38.35;101432.44;5050350;28;45593;-71
2022/01/08 00:46:48;;;;;;;;;0.00;0.00;;;;;22.61;37.87;101429.59;5054866;28;45361;-72
2022/01/08 00:49:13;;;;;;;;;1.67;0.00;;;;;22.58;38.47;101424.66;5053009;28;45380;-72
2022/01/08 00:51:38;;;;;;;;;1.00;0.00;;;;;22.62;37.95;101433.09;5054963;28;45272;-72
2022/01/08 00:54:04;;;;;;;;;0.00;0.00;;;;;22.57;38.22;101424.81;5046344;28;45447;-72
2022/01/08 00:56:29;;;;;;;;;0.00;0.00;;;;;22.64;37.98;101431.09;5041704;28;46051;-72
2022/01/08 00:58:54;;;;;;;;;1.00;1.00;;;;;22.55;38.04;101422.34;5038528;28;45468;-72
2022/01/08 01:01:20;;;;;;;;;0.00;0.00;;;;;22.56;38.33;101423.19;5053099;28;45239;-72
2022/01/08 01:03:45;;;;;;;;;1.00;1.00;;;;;22.63;38.47;101432.09;5051260;28;45586;-72
2022/01/08 01:06:10;;;;;;;;;0.00;0.00;;;;;22.57;38.30;101427.47;5045671;28;46202;-72
2022/01/08 01:08:36;;;;;;;;;0.33;0.33;;;;;22.59;38.42;101421.00;5041260;28;45670;-72
2022/01/08 01:11:01;;;;;;;;;0.00;0.00;;;;;22.65;38.67;101423.97;5052700;28;45473;-72
2022/01/08 01:13:27;;;;;;;;;0.00;0.00;;;;;22.58;38.60;101421.19;5053059;28;45477;-72
2022/01/08 01:15:53;;;;;;;;;0.00;0.00;;;;;22.65;38.62;101432.75;5041234;28;45485;-72
2022/01/08 01:18:19;;;;;;;;;0.00;0.00;;;;;22.61;38.67;101426.94;5029897;28;45496;-72
2022/01/08 01:20:44;;;;;;;;;0.00;0.00;;;;;22.67;38.63;101424.63;5041045;28;45318;-72
2022/01/08 01:23:18;;;;;;;;;0.00;0.00;;;;;22.61;38.14;101421.66;5050309;28;45445;-72
2022/01/08 01:25:53;;;;;;;;;1.33;0.00;;;;;22.68;38.47;101431.59;5038437;28;46191;-72
2022/01/08 01:28:32;;;;;;;;;0.00;0.00;;;;;22.61;38.43;101415.53;5051849;28;45446;-72
2022/01/08 01:47:01;;;;;;;;;0.00;0.00;;;;;22.69;38.15;101433.25;5010594;28;45952;-72
2022/01/08 01:49:40;;;;;;;;;0.00;0.00;;;;;22.71;38.29;101440.06;5013177;28;45858;-70
2022/01/08 01:52:07;;;;;;;;;0.00;0.00;;;;;22.71;38.22;101439.25;5008396;28;45383;-72
2022/01/08 01:54:35;;;;;;;;;0.00;0.00;;;;;22.71;38.68;101421.50;5013174;28;45467;-72
2022/01/08 01:57:03;;;;;;;;;0.00;0.00;;;;;22.71;38.20;101428.63;5007228;28;47373;-72
2022/01/08 01:59:30;;;;;;;;;0.00;0.00;;;;;22.71;38.31;101432.13;5002978;28;45478;-72
2022/01/08 02:01:56;;;;;;;;;0.00;0.00;;;;;22.71;38.61;101432.13;5012933;28;45577;-72
2022/01/08 02:04:22;;;;;;;;;0.00;0.00;;;;;22.71;38.69;101429.47;5013636;28;45514;-71
2022/01/08 02:06:48;;;;;;;;;0.00;0.00;;;;;22.63;38.65;101414.38;5013016;28;47073;-72
2022/01/08 02:09:13;;;;;;;;;0.00;0.00;;;;;22.74;38.22;101430.94;5012134;28;45440;-72
2022/01/08 02:11:58;;;;;;;;;0.67;0.00;;;;;22.73;38.26;101426.63;5011712;28;45465;-71
2022/01/08 02:14:25;;;;;;;;;0.00;0.00;;;;;22.69;38.31;101418.16;5010442;28;45430;-72
2022/01/08 02:16:50;;;;;;;;;0.00;0.00;;;;;22.71;38.44;101421.50;5011605;28;46234;-71
2022/01/08 02:19:16;;;;;;;;;0.00;0.00;;;;;22.66;38.70;101421.16;5012794;28;45416;-71
2022/01/08 02:21:53;;;;;;;;;0.00;0.00;;;;;22.74;38.42;101438.91;5032636;28;45577;-71
2022/01/08 02:24:20;;;;;;;;;0.00;0.00;;;;;22.73;38.46;101426.63;5039943;28;45484;-71
2022/01/08 02:26:45;;;;;;;;;0.00;0.00;;;;;22.73;38.81;101431.94;5049100;28;47008;-71
2022/01/08 02:29:12;;;;;;;;;0.00;0.00;;;;;22.73;38.35;101439.91;5041974;28;45530;-71
2022/01/08 02:31:38;;;;;;;;;0.00;0.00;;;;;22.73;38.87;101427.47;5041940;28;45487;-71
2022/01/08 02:34:05;;;;;;;;;0.00;0.00;;;;;22.75;38.85;101421.97;5039535;28;45358;-71
2022/01/08 02:36:30;;;;;;;;;0.00;0.00;;;;;22.76;38.51;101428.94;5037762;28;47067;-72
2022/01/08 02:38:56;;;;;;;;;0.00;0.00;;;;;22.68;38.67;101397.09;5035938;28;45386;-71
2022/01/08 02:41:21;;;;;;;;;1.00;0.00;;;;;22.77;38.92;101403.25;5039017;28;45476;-71
2022/01/08 02:43:52;;;;;;;;;0.00;0.00;;;;;22.77;38.31;101401.41;5044058;28;45471;-71
2022/01/08 02:46:18;;;;;;;;;0.00;0.00;;;;;22.79;38.46;101396.78;5051468;28;47269;-71
2022/01/08 02:48:43;;;;;;;;;2.00;0.00;;;;;22.79;39.09;101388.00;5049602;28;45479;-70
2022/01/08 02:51:08;;;;;;;;;1.25;0.25;;;;;22.76;37.80;101386.50;5039999;28;45442;-72
2022/01/08 02:53:34;;;;;;;;;1.00;1.00;;;;;22.75;36.22;101387.50;5048057;28;45551;-72
2022/01/08 02:55:59;;;;;;;;;1.67;0.33;;;;;22.72;37.07;101386.00;5051186;28;46255;-71
2022/01/08 02:58:28;;;;;;;;;1.00;0.00;;;;;22.72;37.30;101388.66;5054340;28;45299;-72
2022/01/08 03:00:54;;;;;;;;;1.00;1.00;;;;;22.71;37.89;101392.31;5039284;28;45487;-71
2022/01/08 03:03:19;;;;;;;;;0.00;0.00;;;;;22.66;37.85;101389.34;5045072;28;45316;-72
2022/01/08 03:05:44;;;;;;;;;0.00;0.00;;;;;22.71;37.76;101402.09;5033725;28;47504;-72
2022/01/08 03:08:10;;;;;;;;;0.00;0.00;;;;;22.21;38.27;101318.22;5038211;28;45541;-70
2022/01/08 03:10:35;;;;;;;;;0.00;0.00;;;;;22.70;37.64;101397.78;5035452;28;45595;-72
2022/01/08 03:13:02;;;;;;;;;0.00;0.00;;;;;22.54;38.36;101372.94;5057671;28;45386;-71
2022/01/08 03:15:27;;;;;;;;;0.00;0.00;;;;;22.50;37.98;101371.66;5042762;28;47018;-71
2022/01/08 03:17:53;;;;;;;;;0.00;0.00;;;;;22.67;37.70;101387.47;5042453;28;45391;-71
2022/01/08 03:20:18;;;;;;;;;0.00;0.00;;;;;22.65;37.54;101379.72;5052739;28;45422;-71
2022/01/08 03:22:46;;;;;;;;;0.00;0.00;;;;;22.65;37.58;101386.84;5036292;28;45469;-70
2022/01/08 03:25:13;;;;;;;;;0.00;0.00;;;;;22.64;37.85;101391.31;5050590;28;46073;-70
2022/01/08 03:27:41;;;;;;;;;0.00;0.00;;;;;22.63;38.09;101390.50;5048033;28;45360;-70
2022/01/08 03:30:08;;;;;;;;;0.00;0.00;;;;;22.62;37.71;101391.50;5045011;28;45295;-71
2022/01/08 03:32:34;;;;;;;;;0.00;0.00;;;;;22.61;37.58;101391.66;5039522;28;45432;-71
2022/01/08 03:34:59;;;;;;;;;0.00;0.00;;;;;22.61;37.95;101389.03;5050587;28;45358;-71
2022/01/08 03:37:25;;;;;;;;;0.00;0.00;;;;;22.60;37.54;101380.22;5037375;28;45374;-71
2022/01/08 03:39:50;;;;;;;;;0.00;0.00;;;;;22.59;38.07;101375.06;5040408;28;45400;-72
2022/01/08 03:42:16;;;;;;;;;0.00;0.00;;;;;22.54;38.14;101364.16;5044370;28;45551;-71
2022/01/08 03:44:41;;;;;;;;;0.00;0.00;;;;;22.45;37.61;101353.59;5048446;28;45978;-71
2022/01/08 03:49:47;;;;;;;;;0.00;0.00;;;;;22.53;37.86;101373.97;5044642;28;45382;-71
2022/01/08 03:52:13;;;;;;;;;0.00;0.00;;;;;22.52;37.52;101372.28;5046276;28;45546;-71
2022/01/08 03:54:39;;;;;;;;;0.00;0.00;;;;;22.51;37.89;101376.75;5048059;28;46233;-71
2022/01/08 03:57:05;;;;;;;;;0.00;0.00;;;;;22.48;37.89;101371.78;5048105;28;45314;-71
2022/01/08 03:59:30;;;;;;;;;1.00;0.00;;;;;22.46;37.91;101373.78;5047817;28;45536;-71
2022/01/08 04:01:56;;;;;;;;;0.00;0.00;;;;;22.49;37.30;101370.81;5051345;28;45551;-71
2022/01/08 04:04:21;;;;;;;;;0.00;0.00;;;;;22.50;37.80;101371.66;5053475;28;45413;-71
2022/01/08 04:06:46;;;;;;;;;0.00;0.00;;;;;22.51;37.80;101373.28;5056514;28;45419;-71
2022/01/08 04:09:12;;;;;;;;;0.00;0.00;;;;;22.50;37.30;101371.66;5047014;28;45442;-71
2022/01/08 04:11:38;;;;;;;;;2.00;0.00;;;;;22.49;37.44;101378.75;5044747;28;46536;-70
2022/01/08 04:14:03;;;;;;;;;0.00;0.00;;;;;22.47;37.65;101379.94;5052772;28;45551;-71
2022/01/08 04:16:32;;;;;;;;;0.00;0.00;;;;;22.39;37.78;101370.19;5043915;28;45500;-71
2022/01/08 04:18:58;;;;;;;;;0.00;0.00;;;;;22.37;37.18;101365.06;5042448;28;45594;-71
2022/01/08 04:23:57;;;;;;;;;1.00;1.00;;;;;22.47;37.24;101379.94;5049619;28;45447;-71
2022/01/08 04:26:23;;;;;;;;;0.00;0.00;;;;;22.45;37.28;101377.47;5032299;28;45954;-71
2022/01/08 04:28:49;;;;;;;;;0.00;0.00;;;;;22.45;37.52;101380.13;5051893;28;45444;-71
2022/01/08 04:31:15;;;;;;;;;0.00;0.00;;;;;22.44;37.15;101381.09;5041481;28;45543;-71
2022/01/08 04:33:40;;;;;;;;;0.00;0.00;;;;;22.44;37.68;101372.31;5041439;28;45456;-70
2022/01/08 04:36:06;;;;;;;;;0.00;0.00;;;;;22.33;37.30;101352.31;5043411;28;45469;-71
2022/01/08 04:38:32;;;;;;;;;0.00;0.00;;;;;22.42;37.58;101359.25;5049157;28;50514;-71
2022/01/08 04:40:58;;;;;;;;;0.00;0.00;;;;;22.36;37.26;101354.59;5039564;28;45423;-71
2022/01/08 04:43:23;;;;;;;;;0.00;0.00;;;;;22.36;37.60;101351.94;5052130;28;46062;-71
2022/01/08 04:45:50;;;;;;;;;0.00;0.00;;;;;22.36;37.53;101347.47;5043917;28;45529;-71
2022/01/08 04:48:16;;;;;;;;;0.00;0.00;;;;;22.38;37.66;101363.22;5051356;28;45624;-71
2022/01/08 04:50:41;;;;;;;;;0.00;0.00;;;;;22.39;37.61;101359.56;5049881;28;45338;-71
2022/01/08 04:53:06;;;;;;;;;0.00;0.00;;;;;22.38;37.62;101352.59;5052502;28;46233;-71
2022/01/08 04:55:32;;;;;;;;;1.25;1.25;;;;;22.38;37.25;101350.78;5052404;28;45742;-72
2022/01/08 04:57:57;;;;;;;;;2.00;0.00;;;;;22.38;37.18;101347.31;5056150;28;45272;-71
2022/01/08 05:00:23;;;;;;;;;0.00;0.00;;;;;22.38;37.65;101347.31;5044509;28;45311;-71
2022/01/08 05:02:48;;;;;;;;;1.00;1.00;;;;;22.35;37.57;101340.50;5042726;28;47006;-71
2022/01/08 05:05:14;;;;;;;;;1.00;0.00;;;;;22.35;37.65;101343.16;5053587;28;45515;-71
2022/01/08 05:07:39;;;;;;;;;1.75;0.00;;;;;22.35;37.41;101340.50;5038569;28;45241;-71
2022/01/08 05:10:07;;;;;;;;;3.00;1.00;;;;;22.36;37.07;101342.19;5052238;28;45232;-71
2022/01/08 05:12:33;;;;;;;;;0.00;0.00;;;;;22.35;37.10;101324.59;5051805;28;45476;-71
2022/01/08 05:15:00;;;;;;;;;0.00;0.00;;;;;22.34;37.12;101322.97;5049690;28;45544;-70
2022/01/08 05:17:29;;;;;;;;;0.50;0.00;;;;;22.33;37.27;101329.25;5053829;28;45506;-70
2022/01/08 05:19:58;;;;;;;;;0.25;0.25;;;;;22.33;37.55;101342.50;5053039;28;45421;-71
2022/01/08 05:22:24;;;;;;;;;0.00;0.00;;;;;22.33;37.57;101342.50;5052647;28;45572;-71
2022/01/08 05:24:50;;;;;;;;;0.00;0.00;;;;;22.32;37.20;101346.19;5040189;28;45898;-71
2022/01/08 05:27:17;;;;;;;;;0.75;0.75;;;;;22.31;37.52;101344.50;5051056;28;45386;-72
2022/01/08 05:29:47;;;;;;;;;0.50;0.50;;;;;22.31;37.47;101333.91;5054254;28;45506;-70
2022/01/08 05:32:16;;;;;;;;;0.00;0.00;;;;;22.30;37.46;101342.88;5038298;28;47349;-71
2022/01/08 05:34:48;;;;;;;;;1.00;0.00;;;;;22.29;37.25;101338.56;5039707;28;45596;-71
2022/01/08 05:37:14;;;;;;;;;0.00;0.00;;;;;22.27;36.88;101338.75;5056250;28;45483;-71
2022/01/08 05:39:40;;;;;;;;;1.00;0.00;;;;;22.28;36.96;101331.59;5025078;28;45631;-71
2022/01/08 05:42:06;;;;;;;;;0.50;0.50;;;;;22.24;37.48;101309.91;5041119;28;46216;-70
2022/01/08 05:44:31;;;;;;;;;0.00;0.00;;;;;22.27;37.30;101300.81;5023147;28;45609;-72
2022/01/08 05:46:57;;;;;;;;;0.00;0.00;;;;;22.18;36.82;101282.28;5053250;28;45349;-70
2022/01/08 05:49:22;;;;;;;;;0.25;0.25;;;;;22.27;36.91;101298.97;5051829;28;45287;-71
2022/01/08 05:51:47;;;;;;;;;0.00;0.00;;;;;22.26;37.36;101283.22;5037117;28;47293;-71
2022/01/08 05:54:13;;;;;;;;;1.50;1.00;;;;;22.27;36.93;101290.19;5045437;28;45307;-71
2022/01/08 05:56:38;;;;;;;;;0.00;0.00;;;;;22.27;37.24;101295.50;5051171;28;45854;-71
2022/01/08 05:59:04;;;;;;;;;0.25;0.25;;;;;22.26;37.01;101293.84;5049940;28;48717;-71
2022/01/08 06:01:29;;;;;;;;;0.00;0.00;;;;;22.27;36.99;101298.97;5052070;28;45523;-71
2022/01/08 06:03:55;;;;;;;;;2.00;0.25;;;;;22.17;36.97;101287.75;5053404;28;45225;-71
2022/01/08 06:06:20;;;;;;;;;0.00;0.00;;;;;22.26;37.37;101289.38;5043793;28;45418;-70
2022/01/08 06:08:45;;;;;;;;;0.00;0.00;;;;;22.26;37.09;101292.00;5041850;28;45608;-71
2022/01/08 06:11:11;;;;;;;;;0.00;0.00;;;;;22.26;37.26;101294.66;5039130;28;45437;-71
2022/01/08 06:13:36;;;;;;;;;0.00;0.00;;;;;22.26;36.86;101291.19;5036941;28;45305;-71
2022/01/08 06:16:02;;;;;;;;;0.00;0.00;;;;;22.26;37.34;101286.72;5042193;28;45327;-71
2022/01/08 06:18:27;;;;;;;;;0.00;0.00;;;;;22.25;36.80;101290.34;5040678;28;45294;-71
2022/01/08 06:20:55;;;;;;;;;0.00;0.00;;;;;22.25;37.05;101279.75;5042493;28;47294;-71
2022/01/08 06:23:21;;;;;;;;;1.00;0.00;;;;;22.24;37.33;101267.50;5047838;28;45438;-71
2022/01/08 06:25:46;;;;;;;;;0.00;0.00;;;;;22.13;37.00;101244.03;5053760;28;45386;-71
2022/01/08 06:28:12;;;;;;;;;0.00;0.00;;;;;22.18;37.04;101250.47;5055612;28;46007;-71
2022/01/08 06:30:37;;;;;;;;;0.75;0.75;;;;;22.23;37.18;101265.84;5048166;28;45373;-71
2022/01/08 06:33:03;;;;;;;;;0.00;0.00;;;;;22.22;37.11;101260.72;5044785;28;45405;-71
2022/01/08 06:35:28;;;;;;;;;0.00;0.00;;;;;22.22;36.66;101250.13;5036985;28;45550;-71
2022/01/08 06:37:53;;;;;;;;;1.00;1.00;;;;;22.18;37.06;101233.72;5051088;28;45389;-70
2022/01/08 06:40:19;;;;;;;;;0.00;0.00;;;;;22.21;37.19;101238.69;5033943;28;57246;-71
2022/01/08 06:42:44;;;;;;;;;0.00;0.00;;;;;22.22;36.95;101237.72;5051231;28;45382;-72
2022/01/08 06:45:10;;;;;;;;;0.25;0.00;;;;;22.21;36.83;101238.69;5050871;28;45267;-72
2022/01/08 06:47:35;;;;;;;;;0.00;0.00;;;;;22.20;37.15;101237.03;5043651;28;45507;-71
2022/01/08 06:50:00;;;;;;;;;0.00;0.00;;;;;22.17;36.78;101232.09;5037067;28;51883;-71
2022/01/08 06:52:26;;;;;;;;;0.00;0.00;;;;;22.20;37.25;101236.22;5038104;28;45380;-71
2022/01/08 06:54:51;;;;;;;;;3.00;1.00;;;;;22.20;36.94;101236.22;5053237;28;45866;-71
2022/01/08 06:57:17;;;;;;;;;0.00;0.00;;;;;22.18;36.62;101233.72;5053779;28;45414;-71
2022/01/08 06:59:42;;;;;;;;;0.00;0.00;;;;;22.18;37.00;101229.25;5048659;28;46749;-71
2022/01/08 07:02:07;;;;;;;;;0.00;0.00;;;;;22.17;37.33;101222.28;5059205;28;45580;-71
2022/01/08 07:04:33;;;;;;;;;0.00;0.00;;;;;22.16;37.04;101219.84;5052038;28;45536;-72
2022/01/08 07:06:58;;;;;;;;;0.00;0.00;;;;;22.15;37.14;101215.53;5039683;28;45356;-71
2022/01/08 07:09:24;;;;;;;;;0.00;0.00;;;;;22.13;37.04;101210.41;5040022;28;45561;-71
2022/01/08 07:11:50;;;;;;;;;0.00;0.00;;;;;22.15;37.14;101211.03;5047205;28;45614;-71
2022/01/08 07:14:15;;;;;;;;;0.50;0.50;;;;;22.13;36.65;101205.09;5040882;28;45826;-71
2022/01/08 07:16:40;;;;;;;;;0.00;0.00;;;;;22.14;36.81;101193.50;5036283;28;45511;-71
2022/01/08 07:19:06;;;;;;;;;1.50;1.00;;;;;22.14;36.89;101200.63;5054334;28;45389;-71
2022/01/08 07:21:31;;;;;;;;;0.00;0.00;;;;;22.14;37.00;101200.63;5041079;28;45524;-71
2022/01/08 07:23:56;;;;;;;;;0.00;0.00;;;;;22.06;37.27;101182.94;5039410;28;45564;-71
2022/01/08 07:26:22;;;;;;;;;0.00;0.00;;;;;22.13;36.69;101186.56;5024894;28;45609;-71
2022/01/08 07:28:47;;;;;;;;;0.00;0.00;;;;;22.13;36.96;101185.72;5039086;28;46088;-71
2022/01/08 07:31:13;;;;;;;;;1.00;1.00;;;;;22.14;36.89;101188.22;5042884;28;45384;-71
2022/01/08 07:33:38;;;;;;;;;0.00;0.00;;;;;22.13;36.69;101188.38;5045557;28;45615;-72
2022/01/08 07:36:03;;;;;;;;;2.00;0.00;;;;;22.07;37.02;101180.09;5048316;28;45500;-71
2022/01/08 07:38:29;;;;;;;;;0.00;0.00;;;;;22.12;36.65;101190.19;5043378;28;45909;-71
2022/01/08 07:40:54;;;;;;;;;0.00;0.00;;;;;22.13;36.78;101189.19;5040198;28;45463;-70
2022/01/08 07:43:20;;;;;;;;;1.50;0.00;;;;;22.14;36.93;101192.69;5056039;28;45612;-71
2022/01/08 07:45:45;;;;;;;;;3.25;0.00;;;;;22.13;36.93;101183.91;5044057;28;45239;-71
2022/01/08 07:48:11;;;;;;;;;1.50;0.50;;;;;22.12;36.58;101184.88;5029107;28;46874;-72
2022/01/08 07:50:36;;;;;;;;;0.00;0.00;;;;;22.14;36.95;101177.63;5042118;28;45333;-71
2022/01/08 07:53:01;;;;;;;;;0.75;0.00;;;;;22.15;37.17;101173.94;5054558;28;45360;-71
2022/01/08 07:55:27;;;;;;;;;2.00;0.00;;;;;22.14;36.54;101159.06;5054243;28;45533;-72
2022/01/08 07:57:52;;;;;;;;;0.00;0.00;;;;;22.15;36.56;101151.91;5042589;28;46174;-69
2022/01/08 08:00:17;;;;;;;;;2.25;1.00;;;;;22.15;37.07;101150.09;5042743;28;45326;-70
2022/01/08 08:02:43;;;;;;;;;0.25;0.25;;;;;22.14;37.04;101147.63;5043186;28;45861;-72
2022/01/08 08:05:08;;;;;;;;;0.75;0.00;;;;;22.12;36.95;101139.84;5053287;28;46713;-72
2022/01/08 08:07:37;;;;;;;;;0.00;0.00;;;;;22.12;36.96;101128.44;5038740;28;45469;-71
2022/01/08 08:10:05;;;;;;;;;0.00;0.00;;;;;22.07;36.69;101115.69;5053694;28;45442;-71
2022/01/08 08:12:30;;;;;;;;;0.00;0.00;;;;;22.12;36.55;101117.84;5051468;28;45498;-70
2022/01/08 08:14:55;;;;;;;;;0.00;0.00;;;;;22.12;36.42;101116.00;5052287;28;45511;-70
2022/01/08 08:17:20;;;;;;;;;1.25;0.00;;;;;22.11;36.98;101108.22;5043090;28;45369;-71
2022/01/08 08:19:46;;;;;;;;;2.00;1.25;;;;;22.10;37.02;101111.88;5040374;28;45409;-71
2022/01/08 08:22:11;;;;;;;;;0.00;0.00;;;;;22.11;36.56;101098.47;5053749;28;45351;-71
2022/01/08 08:24:36;;;;;;;;;0.00;0.00;;;;;22.10;36.53;101099.44;5051314;28;45405;-71
2022/01/08 08:27:02;;;;;;;;;0.00;0.00;;;;;22.10;36.50;101088.84;5054791;28;46083;-71
2022/01/08 08:29:27;;;;;;;;;0.00;0.00;;;;;22.01;37.19;101074.00;5034866;28;45333;-71
2022/01/08 08:31:53;;;;;;;;;0.00;0.00;;;;;22.10;36.82;101085.38;5053387;28;45385;-71
2022/01/08 08:34:18;;;;;;;;;0.25;0.25;;;;;22.11;36.52;101081.72;5041049;28;45366;-70
2022/01/08 08:36:43;;;;;;;;;0.00;0.00;;;;;22.11;36.98;101076.44;5039564;28;46063;-71
2022/01/08 08:39:08;;;;;;;;;0.50;0.50;;;;;22.06;36.57;101064.53;5043563;28;45871;-71
2022/01/08 08:41:34;;;;;;;;;0.00;0.00;;;;;22.02;36.86;101063.22;5026528;28;45592;-71
2022/01/08 08:43:59;;;;;;;;;0.00;0.00;;;;;22.09;36.83;101073.97;5053469;28;45548;-71
2022/01/08 08:46:24;;;;;;;;;2.00;0.00;;;;;22.10;37.05;101075.59;5039771;28;45521;-71
2022/01/08 08:48:50;;;;;;;;;0.00;0.00;;;;;22.10;36.97;101067.66;5051530;28;45303;-71
2022/01/08 08:51:15;;;;;;;;;1.33;0.00;;;;;22.07;36.50;101068.81;5050458;28;45624;-71
2022/01/08 08:53:41;;;;;;;;;0.00;0.00;;;;;22.09;36.77;101065.19;5055259;28;45648;-71
2022/01/08 08:56:07;;;;;;;;;0.00;0.00;;;;;22.06;37.06;101053.94;5053708;28;47098;-71
2022/01/08 08:58:32;;;;;;;;;0.25;0.25;;;;;22.01;36.85;101037.75;5041082;28;45347;-71
2022/01/08 09:00:58;;;;;;;;;0.00;0.00;;;;;22.06;36.93;101045.16;5041771;28;45418;-70
2022/01/08 09:03:23;;;;;;;;;0.00;0.00;;;;;22.07;36.62;101044.16;5039171;28;45351;-71
2022/01/08 09:05:48;;;;;;;;;0.00;0.00;;;;;22.06;36.53;101032.75;5039145;28;45224;-71
2022/01/08 09:08:14;;;;;;;;;1.00;1.00;;;;;22.07;37.07;101020.28;5039118;28;45290;-71
2022/01/08 09:10:39;;;;;;;;;0.50;0.50;;;;;22.07;36.84;101021.13;5053625;28;45386;-71
2022/01/08 09:13:04;;;;;;;;;2.00;1.00;;;;;22.01;36.32;101016.56;5041668;28;45363;-71
2022/01/08 09:15:30;;;;;;;;;0.50;0.00;;;;;22.06;36.60;101013.38;5042113;28;47991;-71
2022/01/08 09:17:57;;;;;;;;;0.00;0.00;;;;;22.07;36.98;101001.75;5044004;28;45431;-71
2022/01/08 09:20:28;;;;;;;;;0.00;0.00;;;;;22.01;36.75;100998.00;5052259;28;45473;-71
2022/01/08 09:22:53;;;;;;;;;2.00;0.00;;;;;22.05;36.73;100994.00;5037663;28;45553;-71
2022/01/08 09:25:19;;;;;;;;;0.00;0.00;;;;;22.06;36.67;101000.94;5040223;28;46579;-71
2022/01/08 09:27:45;;;;;;;;;0.00;0.00;;;;;22.05;36.89;100986.03;5042744;28;46544;-71
2022/01/08 09:30:11;;;;;;;;;2.00;0.00;;;;;22.05;36.40;100986.03;5046842;28;45489;-71
2022/01/08 09:32:37;;;;;;;;;0.00;0.00;;;;;22.07;36.87;100988.50;5060359;28;45279;-72
2022/01/08 09:35:04;;;;;;;;;0.00;0.00;;;;;22.06;36.99;100987.69;5044946;28;46152;-71
2022/01/08 09:37:29;;;;;;;;;0.00;0.00;;;;;22.06;36.43;100981.56;5055402;28;45266;-71
2022/01/08 09:39:55;;;;;;;;;0.75;0.75;;;;;22.06;36.88;100987.69;5062359;28;45419;-71
2022/01/08 09:42:20;;;;;;;;;1.00;1.00;;;;;22.06;36.51;100981.56;5052001;28;45557;-71
2022/01/08 09:44:46;;;;;;;;;1.00;0.00;;;;;21.97;36.71;100954.31;5049292;28;46294;-71
2022/01/08 09:47:12;;;;;;;;;0.00;0.00;;;;;22.02;36.96;100949.28;5038822;28;45309;-71
2022/01/08 09:49:38;;;;;;;;;2.00;0.00;;;;;22.02;36.85;100945.81;5054387;28;45327;-72
2022/01/08 09:52:05;;;;;;;;;0.00;0.00;;;;;22.05;36.94;100951.59;5044742;28;45228;-71
2022/01/08 09:54:31;;;;;;;;;1.00;0.00;;;;;22.05;36.74;100941.00;5029700;28;49196;-71
2022/01/08 09:56:58;;;;;;;;;0.00;0.00;;;;;22.04;36.94;100931.38;5044835;28;45272;-71
2022/01/08 09:59:24;;;;;;;;;0.00;0.00;;;;;22.06;36.86;100928.59;5052927;28;45239;-71
2022/01/08 10:01:55;;;;;;;;;2.00;0.00;;;;;22.05;37.09;100911.84;5057372;28;45353;-71
2022/01/08 10:04:26;;;;;;;;;0.00;0.00;;;;;22.02;36.86;100906.91;5039478;28;45414;-71
2022/01/08 10:07:17;;;;;;;;;0.00;0.00;;;;;22.05;36.40;100903.91;5048323;28;45406;-70
2022/01/08 10:10:03;;;;;;;;;1.00;0.00;;;;;22.04;36.99;100899.59;5049557;28;45354;-71
2022/01/08 10:12:39;;;;;;;;;0.00;0.00;;;;;21.98;36.94;100875.66;5051540;28;45455;-71
2022/01/08 10:17:49;;;;;;;;;0.75;0.00;;;;;22.04;36.64;100878.41;5049495;28;45571;-71
2022/01/08 10:20:34;;;;;;;;;0.25;0.00;;;;;21.95;36.53;100863.59;5054174;28;45368;-71
2022/01/08 10:23:19;;;;;;;;;2.00;0.00;;;;;22.03;36.78;100876.78;5053492;28;45648;-71
2022/01/08 10:26:13;;;;;;;;;0.50;0.00;;;;;22.03;36.75;100865.34;5053875;28;45399;-71
2022/01/08 10:28:47;;;;;;;;;0.33;0.33;;;;;22.02;36.56;100863.69;5049277;28;45298;-71
2022/01/08 10:31:15;;;;;;;;;0.00;0.00;;;;;22.01;36.88;100860.25;5040123;28;45367;-72
2022/01/08 10:33:43;;;;;;;;;0.00;0.00;;;;;22.01;36.47;100848.81;5040435;28;45712;-71
2022/01/08 10:36:09;;;;;;;;;0.00;0.00;;;;;22.01;36.86;100840.88;5040394;28;47172;-71
2022/01/08 10:38:34;;;;;;;;;0.00;0.00;;;;;22.01;37.09;100832.91;5037571;28;45378;-71
2022/01/08 10:41:01;;;;;;;;;0.00;0.00;;;;;22.01;36.88;100827.63;5038091;28;45358;-71
2022/01/08 10:43:30;;;;;;;;;0.00;0.00;;;;;22.01;36.65;100814.38;5039410;28;45384;-71
2022/01/08 10:46:07;;;;;;;;;0.00;0.00;;;;;22.00;37.00;100802.94;5049939;28;46108;-71
2022/01/08 10:48:33;;;;;;;;;1.75;0.25;;;;;22.01;36.47;100795.81;5048574;28;45224;-71
2022/01/08 10:51:10;;;;;;;;;1.00;0.25;;;;;22.01;37.07;100799.31;5043393;28;45418;-71
2022/01/08 10:53:58;;;;;;;;;0.00;0.00;;;;;22.02;36.95;100778.91;5040530;28;45477;-71
2022/01/08 10:56:36;;;;;;;;;0.00;0.00;;;;;21.99;36.89;100774.78;5051707;28;45548;-71
2022/01/08 10:59:12;;;;;;;;;0.00;0.00;;;;;22.01;37.03;100769.34;5055434;28;45497;-71
2022/01/08 11:01:40;;;;;;;;;0.00;0.00;;;;;22.00;36.56;100757.91;5067421;28;45558;-71
2022/01/08 11:04:12;;;;;;;;;1.25;1.25;;;;;22.01;37.17;100748.97;5046384;28;45421;-71
2022/01/08 11:06:55;;;;;;;;;2.00;0.00;;;;;22.02;36.47;100737.34;5046759;28;46960;-71
2022/01/08 11:09:23;;;;;;;;;3.00;1.00;;;;;22.03;37.00;100735.53;5051727;28;45488;-71
2022/01/08 11:11:50;;;;;;;;;0.75;0.75;;;;;22.02;36.50;100732.06;5053979;28;45267;-71
2022/01/08 11:14:46;;;;;;;;;0.00;0.00;;;;;21.90;36.91;100696.44;5045169;28;45537;-72
2022/01/08 11:17:24;;;;;;;;;2.00;0.00;;;;;22.02;36.68;100696.78;5048187;28;46168;-71
2022/01/08 11:19:54;;;;;;;;;0.75;0.75;;;;;22.03;36.90;100687.84;5059550;28;45426;-72
2022/01/08 11:22:22;;;;;;;;;0.00;0.00;;;;;22.01;36.52;100674.78;5061354;28;45484;-72
2022/01/08 11:24:58;;;;;;;;;0.25;0.00;;;;;22.02;37.06;100668.47;5041194;28;45533;-70
2022/01/08 11:27:29;;;;;;;;;0.50;0.50;;;;;22.00;36.92;100659.88;5058124;28;46082;-72
2022/01/08 11:30:14;;;;;;;;;2.00;0.00;;;;;22.02;36.99;100657.88;5054283;28;45323;-72
2022/01/08 11:32:40;;;;;;;;;1.25;0.25;;;;;21.93;36.85;100632.50;5047849;28;45302;-72
2022/01/08 11:35:08;;;;;;;;;0.00;0.00;;;;;22.02;37.03;100635.84;5050372;28;45225;-71
2022/01/08 11:37:34;;;;;;;;;0.00;0.00;;;;;22.01;36.76;100627.09;5044023;28;46185;-72
2022/01/08 11:40:03;;;;;;;;;1.75;1.00;;;;;22.01;36.94;100619.16;5046008;28;45473;-71
2022/01/08 11:42:31;;;;;;;;;0.75;0.00;;;;;22.01;36.42;100602.44;5045398;28;45379;-71
2022/01/08 11:45:00;;;;;;;;;1.00;0.50;;;;;21.99;37.02;100585.91;5046592;28;45748;-72
2022/01/08 11:47:29;;;;;;;;;0.25;0.25;;;;;21.94;36.82;100566.09;5058505;28;46192;-72